RoSS Sea — WDE3122 — position and weather

sailwx.info

Track history (hours):
 
Tides and Currents Weather Stations Pressure Air Temp Water Temp Dewpoint Dewpoint Depression Visibility Wind Speed Wind Dir Waves Ship Positions

RoSS Sea

Owner: Kirby Inland Marine, LP, Houston, TX. More information available from US FCC via Universal Licensing System and Coast Guard Vessel Documentation Center.

Last reported at 2014-Oct-21 12:12 UTC. Time now 2014-Oct-21 15:13 UTC.
Position N 40°36' W 074°12'.

Length 30 m; draft 5 m.

Type: Towing. MMSI: 367334360.

Date/timePositionNaut miles runAvg speedWind from/ knotsBaromVisibWave heightAir tempDewpointWater temp
2014-Oct-21 12:12N 40°36' W 074°12'4 6.1
2014-Oct-21 11:33N 40°39' W 074°08'2 1.7
2014-Oct-21 10:33N 40°39' W 074°06'0 0.0
2014-Oct-21 09:33N 40°39' W 074°06'0 0.0
2014-Oct-21 08:30N 40°39' W 074°06'0 0.0
2014-Oct-21 07:29N 40°39' W 074°06'0 0.0
2014-Oct-21 06:32N 40°39' W 074°06'5 2.6
2014-Oct-21 04:33N 40°37' W 074°12'4 4.2
2014-Oct-21 03:32N 40°39' W 074°07'0 0.5
2014-Oct-21 02:32N 40°39' W 074°08'2 1.7
2014-Oct-21 01:26N 40°38' W 074°10'0 0.0
2014-Oct-21 00:33N 40°38' W 074°10'6 5.8
2014-Oct-20 23:33N 40°40' W 074°03'13 9.6
2014-Oct-20 22:12N 40°52' W 073°56'5 1.6
2014-Oct-20 19:14N 40°48' W 073°59'6 9.4
2014-Oct-20 18:33N 40°42' W 074°02'8 7.5
2014-Oct-20 17:33N 40°39' W 074°10'2 2.0
2014-Oct-20 16:33N 40°37' W 074°12'6 6.6
2014-Oct-20 15:33N 40°39' W 074°04'4 3.5
2014-Oct-20 14:33N 40°38' W 074°09'1 0.9
2014-Oct-20 13:26N 40°39' W 074°10'0 0.0
2014-Oct-20 12:10N 40°39' W 074°10'0 0.0
2014-Oct-20 11:16N 40°39' W 074°10'0 0.0
2014-Oct-20 10:32N 40°38' W 074°10'0 0.0
2014-Oct-20 09:32N 40°38' W 074°10'0 0.0
2014-Oct-20 08:32N 40°38' W 074°10'0 0.0
2014-Oct-20 07:33N 40°38' W 074°10'1 0.6
2014-Oct-20 06:33N 40°38' W 074°09'3 3.2
2014-Oct-20 05:33N 40°39' W 074°05'1 1.5
2014-Oct-20 04:33N 40°39' W 074°07'2 2.3
2014-Oct-20 03:33N 40°38' W 074°10'0 0.0
2014-Oct-20 02:33N 40°38' W 074°10'0 0.0
2014-Oct-20 01:33N 40°38' W 074°10'0 0.0
2014-Oct-20 00:33N 40°38' W 074°10'0 0.0
2014-Oct-19 23:33N 40°38' W 074°10'0 0.0
2014-Oct-19 22:33N 40°38' W 074°10'0 0.0
2014-Oct-19 21:33N 40°38' W 074°10'0 0.0
2014-Oct-19 20:33N 40°38' W 074°10'0 0.0
2014-Oct-19 19:31N 40°38' W 074°10'0 0.0
2014-Oct-19 18:33N 40°38' W 074°10'0 0.0
2014-Oct-19 17:33N 40°38' W 074°10'0 0.0
2014-Oct-19 16:33N 40°38' W 074°10'2 2.2
2014-Oct-19 15:32N 40°39' W 074°07'2 2.3
2014-Oct-19 14:33N 40°38' W 074°10'0 0.0
2014-Oct-19 13:33N 40°38' W 074°10'0 0.0
2014-Oct-19 12:33N 40°38' W 074°10'0 0.0
2014-Oct-19 11:33N 40°38' W 074°10'0 0.0
2014-Oct-19 10:33N 40°38' W 074°10'0 0.0
2014-Oct-19 09:32N 40°38' W 074°10'0 0.0
2014-Oct-19 08:33N 40°38' W 074°10'0 0.0
2014-Oct-19 07:33N 40°38' W 074°10'8 3.3
2014-Oct-19 05:06N 40°31' W 074°15'4 0.7
2014-Oct-19 00:10N 40°34' W 074°13'5 7.8
2014-Oct-18 23:30N 40°39' W 074°09'8 8.6
2014-Oct-18 22:33N 40°44' W 074°01'1 0.2
2014-Oct-18 18:33N 40°45' W 074°01'8 7.7
2014-Oct-18 17:33N 40°39' W 074°07'1 0.2
2014-Oct-18 12:25N 40°39' W 074°08'9 9.8
2014-Oct-18 11:33N 40°43' W 073°58'6 1.2
2014-Oct-18 06:11N 40°48' W 073°54'0 0.0
2014-Oct-18 05:08N 40°48' W 073°54'0 0.0
2014-Oct-18 04:33N 40°48' W 073°54'0 0.0
2014-Oct-18 03:31N 40°48' W 073°54'0 0.0
2014-Oct-18 01:32N 40°48' W 073°54'4 4.6
2014-Oct-18 00:33N 40°45' W 073°58'1 1.5
2014-Oct-17 23:33N 40°46' W 073°57'3 2.4
2014-Oct-17 22:24N 40°48' W 073°54'4 4.4
2014-Oct-17 21:33N 40°45' W 073°58'7 7.0
2014-Oct-17 20:33N 40°40' W 074°03'5 5.2
2014-Oct-17 19:33N 40°38' W 074°10'0 0.0
2014-Oct-17 18:33N 40°38' W 074°10'0 0.0
2014-Oct-17 17:33N 40°38' W 074°10'0 0.0
2014-Oct-17 16:33N 40°38' W 074°10'0 0.0
2014-Oct-17 15:33N 40°38' W 074°10'0 0.0
2014-Oct-17 14:33N 40°38' W 074°10'0 0.0
2014-Oct-17 13:33N 40°38' W 074°10'0 0.0
2014-Oct-17 12:33N 40°38' W 074°10'0 0.0
2014-Oct-17 11:33N 40°38' W 074°10'0 0.0
2014-Oct-17 10:33N 40°38' W 074°10'0 0.0
2014-Oct-17 09:33N 40°38' W 074°10'0 0.0
2014-Oct-17 08:33N 40°38' W 074°10'0 0.0
2014-Oct-17 07:33N 40°38' W 074°10'0 0.0
2014-Oct-17 06:33N 40°38' W 074°10'0 0.0
2014-Oct-17 05:33N 40°38' W 074°10'0 0.0
2014-Oct-17 04:33N 40°38' W 074°10'3 2.5
2014-Oct-17 03:33N 40°39' W 074°07'1 0.7
2014-Oct-17 02:33N 40°39' W 074°06'0 0.0
2014-Oct-17 01:33N 40°39' W 074°06'0 0.2
2014-Oct-17 00:33N 40°39' W 074°06'8 3.8
2014-Oct-16 22:30N 40°33' W 074°14'4 3.3
2014-Oct-16 21:14N 40°37' W 074°12'2 3.0
2014-Oct-16 20:33N 40°38' W 074°10'0 0.0
2014-Oct-16 19:33N 40°38' W 074°10'0 0.0
2014-Oct-16 18:33N 40°38' W 074°10'0 0.0
2014-Oct-16 17:33N 40°38' W 074°10'0 0.0
2014-Oct-16 16:33N 40°38' W 074°10'1 0.6
2014-Oct-16 15:33N 40°39' W 074°09'1 0.6
2014-Oct-16 14:33N 40°38' W 074°10'0 0.0
2014-Oct-16 13:33N 40°38' W 074°10'0 0.0
2014-Oct-16 12:33N 40°38' W 074°10'0 0.0
2014-Oct-16 11:33N 40°38' W 074°10'0 0.0
2014-Oct-16 10:32N 40°38' W 074°10'0 0.0
2014-Oct-16 09:33N 40°38' W 074°10'0 0.0
2014-Oct-16 08:22N 40°38' W 074°10'0 0.0
2014-Oct-16 06:29N 40°38' W 074°10'0 0.0
2014-Oct-16 05:31N 40°38' W 074°10'5 5.2
2014-Oct-16 04:33N 40°40' W 074°03'1 0.8
2014-Oct-16 03:25N 40°40' W 074°02'4 4.5
2014-Oct-16 02:29N 40°39' W 074°08'4 0.3
2014-Oct-15 15:32N 40°38' W 074°12'0 0.1
2014-Oct-15 14:33N 40°38' W 074°12'4 3.6
2014-Oct-15 13:33N 40°39' W 074°08'8 8.1
2014-Oct-15 12:33N 40°42' W 073°58'3 2.7
2014-Oct-15 11:32N 40°41' W 074°01'7 6.6
2014-Oct-15 10:30N 40°39' W 074°10'0 0.0
2014-Oct-15 09:24N 40°39' W 074°10'0 0.0
2014-Oct-15 08:33N 40°39' W 074°10'0 0.0
2014-Oct-15 07:32N 40°39' W 074°10'0 0.0
2014-Oct-15 06:24N 40°39' W 074°10'0 0.0
2014-Oct-15 04:30N 40°39' W 074°10'0 0.0
2014-Oct-15 03:22N 40°39' W 074°10'0 0.0
2014-Oct-15 02:26N 40°39' W 074°10'0 0.0
2014-Oct-15 00:15N 40°39' W 074°10'5 7.0
2014-Oct-14 23:33N 40°40' W 074°04'1311.7
2014-Oct-14 22:27N 40°51' W 073°57'1010.8
2014-Oct-14 21:33N 41°01' W 073°53'10 9.1
2014-Oct-14 20:26N 41°11' W 073°56'2 2.0
2014-Oct-14 19:31N 41°12' W 073°57'0 0.0
2014-Oct-14 18:32N 41°12' W 073°57'0 0.0
2014-Oct-14 17:29N 41°12' W 073°57'2 1.7
2014-Oct-14 16:29N 41°11' W 073°56'2 1.7
2014-Oct-14 15:30N 41°12' W 073°57'23 2.5
2014-Oct-14 06:24N 40°49' W 073°58'6 7.2
2014-Oct-14 05:33N 40°44' W 074°01'5 4.5
2014-Oct-14 04:31N 40°40' W 074°04'7 5.2
2014-Oct-14 03:09N 40°36' W 074°12'3 0.2
2014-Oct-13 12:19N 40°39' W 074°10'0 0.0
2014-Oct-13 11:33N 40°39' W 074°10'3 3.3
2014-Oct-13 10:32N 40°39' W 074°06'0 0.4
2014-Oct-13 09:33N 40°39' W 074°06'5 5.1
2014-Oct-13 08:33N 40°37' W 074°12'2 1.7
2014-Oct-13 07:33N 40°36' W 074°12'4 3.5
2014-Oct-13 06:33N 40°39' W 074°11'1 0.6
2014-Oct-13 05:17N 40°38' W 074°10'0 0.0
2014-Oct-13 04:08N 40°38' W 074°10'0 0.0
2014-Oct-13 03:26N 40°38' W 074°10'0 0.0
2014-Oct-13 01:33N 40°38' W 074°10'0 0.0
2014-Oct-13 00:31N 40°38' W 074°10'0 0.0
2014-Oct-12 23:32N 40°38' W 074°10'0 0.2
2014-Oct-12 22:29N 40°38' W 074°10'4 3.6
2014-Oct-12 21:30N 40°39' W 074°05'6 4.3
2014-Oct-12 20:07N 40°37' W 074°12'3 0.7
2014-Oct-12 15:20N 40°39' W 074°09'1 0.3
2014-Oct-12 13:30N 40°38' W 074°10'0 0.1
2014-Oct-12 09:06N 40°39' W 074°10'0 0.0
2014-Oct-12 08:22N 40°39' W 074°10'0 0.0
2014-Oct-12 07:09N 40°39' W 074°10'3 1.5
2014-Oct-12 05:18N 40°36' W 074°12'1 1.7
2014-Oct-12 04:33N 40°38' W 074°12'4 4.1
2014-Oct-12 03:30N 40°33' W 074°14'2 1.6
2014-Oct-12 02:23N 40°32' W 074°15'7 8.3
2014-Oct-12 01:31N 40°39' W 074°11'1 1.1
2014-Oct-12 00:33N 40°38' W 074°10'0 0.0
2014-Oct-11 23:33N 40°38' W 074°10'0 0.0
2014-Oct-11 22:33N 40°38' W 074°10'5 5.4
2014-Oct-11 21:33N 40°40' W 074°03'0 0.4
2014-Oct-11 20:33N 40°40' W 074°03'0 0.0
2014-Oct-11 19:33N 40°40' W 074°03'6 5.7
2014-Oct-11 18:33N 40°38' W 074°10'0 0.0
2014-Oct-11 17:33N 40°38' W 074°10'0 0.0
2014-Oct-11 16:33N 40°38' W 074°10'0 0.0
2014-Oct-11 15:33N 40°38' W 074°10'2 2.2
2014-Oct-11 14:33N 40°39' W 074°07'0 0.0
2014-Oct-11 13:32N 40°39' W 074°07'0 0.0
2014-Oct-11 12:33N 40°39' W 074°07'  
Track history (hours):
 
Tides and Currents Weather Stations Pressure Air Temp Water Temp Dewpoint Dewpoint Depression Visibility Wind Speed Wind Dir Waves Ship Positions

RoSS Sea

Owner: Kirby Inland Marine, LP, Houston, TX. More information available from US FCC via Universal Licensing System and Coast Guard Vessel Documentation Center.

Last reported at 2014-Oct-21 12:12 UTC. Time now 2014-Oct-21 15:13 UTC.
Position N 40°36' W 074°12'.

Length 30 m; draft 5 m.

Type: Towing. MMSI: 367334360.

Date/timePositionNaut miles runAvg speedWind from/ knotsBaromVisibWave heightAir tempDewpointWater temp
2014-Oct-21 12:12N 40°36' W 074°12'4 6.1
2014-Oct-21 11:33N 40°39' W 074°08'2 1.7
2014-Oct-21 10:33N 40°39' W 074°06'0 0.0
2014-Oct-21 09:33N 40°39' W 074°06'0 0.0
2014-Oct-21 08:30N 40°39' W 074°06'0 0.0
2014-Oct-21 07:29N 40°39' W 074°06'0 0.0
2014-Oct-21 06:32N 40°39' W 074°06'5 2.6
2014-Oct-21 04:33N 40°37' W 074°12'4 4.2
2014-Oct-21 03:32N 40°39' W 074°07'0 0.5
2014-Oct-21 02:32N 40°39' W 074°08'2 1.7
2014-Oct-21 01:26N 40°38' W 074°10'0 0.0
2014-Oct-21 00:33N 40°38' W 074°10'6 5.8
2014-Oct-20 23:33N 40°40' W 074°03'13 9.6
2014-Oct-20 22:12N 40°52' W 073°56'5 1.6
2014-Oct-20 19:14N 40°48' W 073°59'6 9.4
2014-Oct-20 18:33N 40°42' W 074°02'8 7.5
2014-Oct-20 17:33N 40°39' W 074°10'2 2.0
2014-Oct-20 16:33N 40°37' W 074°12'6 6.6
2014-Oct-20 15:33N 40°39' W 074°04'4 3.5
2014-Oct-20 14:33N 40°38' W 074°09'1 0.9
2014-Oct-20 13:26N 40°39' W 074°10'0 0.0
2014-Oct-20 12:10N 40°39' W 074°10'0 0.0
2014-Oct-20 11:16N 40°39' W 074°10'0 0.0
2014-Oct-20 10:32N 40°38' W 074°10'0 0.0
2014-Oct-20 09:32N 40°38' W 074°10'0 0.0
2014-Oct-20 08:32N 40°38' W 074°10'0 0.0
2014-Oct-20 07:33N 40°38' W 074°10'1 0.6
2014-Oct-20 06:33N 40°38' W 074°09'3 3.2
2014-Oct-20 05:33N 40°39' W 074°05'1 1.5
2014-Oct-20 04:33N 40°39' W 074°07'2 2.3
2014-Oct-20 03:33N 40°38' W 074°10'0 0.0
2014-Oct-20 02:33N 40°38' W 074°10'0 0.0
2014-Oct-20 01:33N 40°38' W 074°10'0 0.0
2014-Oct-20 00:33N 40°38' W 074°10'0 0.0
2014-Oct-19 23:33N 40°38' W 074°10'0 0.0
2014-Oct-19 22:33N 40°38' W 074°10'0 0.0
2014-Oct-19 21:33N 40°38' W 074°10'0 0.0
2014-Oct-19 20:33N 40°38' W 074°10'0 0.0
2014-Oct-19 19:31N 40°38' W 074°10'0 0.0
2014-Oct-19 18:33N 40°38' W 074°10'0 0.0
2014-Oct-19 17:33N 40°38' W 074°10'0 0.0
2014-Oct-19 16:33N 40°38' W 074°10'2 2.2
2014-Oct-19 15:32N 40°39' W 074°07'2 2.3
2014-Oct-19 14:33N 40°38' W 074°10'0 0.0
2014-Oct-19 13:33N 40°38' W 074°10'0 0.0
2014-Oct-19 12:33N 40°38' W 074°10'0 0.0
2014-Oct-19 11:33N 40°38' W 074°10'0 0.0
2014-Oct-19 10:33N 40°38' W 074°10'0 0.0
2014-Oct-19 09:32N 40°38' W 074°10'0 0.0
2014-Oct-19 08:33N 40°38' W 074°10'0 0.0
2014-Oct-19 07:33N 40°38' W 074°10'8 3.3
2014-Oct-19 05:06N 40°31' W 074°15'4 0.7
2014-Oct-19 00:10N 40°34' W 074°13'5 7.8
2014-Oct-18 23:30N 40°39' W 074°09'8 8.6
2014-Oct-18 22:33N 40°44' W 074°01'1 0.2
2014-Oct-18 18:33N 40°45' W 074°01'8 7.7
2014-Oct-18 17:33N 40°39' W 074°07'1 0.2
2014-Oct-18 12:25N 40°39' W 074°08'9 9.8
2014-Oct-18 11:33N 40°43' W 073°58'6 1.2
2014-Oct-18 06:11N 40°48' W 073°54'0 0.0
2014-Oct-18 05:08N 40°48' W 073°54'0 0.0
2014-Oct-18 04:33N 40°48' W 073°54'0 0.0
2014-Oct-18 03:31N 40°48' W 073°54'0 0.0
2014-Oct-18 01:32N 40°48' W 073°54'4 4.6
2014-Oct-18 00:33N 40°45' W 073°58'1 1.5
2014-Oct-17 23:33N 40°46' W 073°57'3 2.4
2014-Oct-17 22:24N 40°48' W 073°54'4 4.4
2014-Oct-17 21:33N 40°45' W 073°58'7 7.0
2014-Oct-17 20:33N 40°40' W 074°03'5 5.2
2014-Oct-17 19:33N 40°38' W 074°10'0 0.0
2014-Oct-17 18:33N 40°38' W 074°10'0 0.0
2014-Oct-17 17:33N 40°38' W 074°10'0 0.0
2014-Oct-17 16:33N 40°38' W 074°10'0 0.0
2014-Oct-17 15:33N 40°38' W 074°10'0 0.0
2014-Oct-17 14:33N 40°38' W 074°10'0 0.0
2014-Oct-17 13:33N 40°38' W 074°10'0 0.0
2014-Oct-17 12:33N 40°38' W 074°10'0 0.0
2014-Oct-17 11:33N 40°38' W 074°10'0 0.0
2014-Oct-17 10:33N 40°38' W 074°10'0 0.0
2014-Oct-17 09:33N 40°38' W 074°10'0 0.0
2014-Oct-17 08:33N 40°38' W 074°10'0 0.0
2014-Oct-17 07:33N 40°38' W 074°10'0 0.0
2014-Oct-17 06:33N 40°38' W 074°10'0 0.0
2014-Oct-17 05:33N 40°38' W 074°10'0 0.0
2014-Oct-17 04:33N 40°38' W 074°10'3 2.5
2014-Oct-17 03:33N 40°39' W 074°07'1 0.7
2014-Oct-17 02:33N 40°39' W 074°06'0 0.0
2014-Oct-17 01:33N 40°39' W 074°06'0 0.2
2014-Oct-17 00:33N 40°39' W 074°06'8 3.8
2014-Oct-16 22:30N 40°33' W 074°14'4 3.3
2014-Oct-16 21:14N 40°37' W 074°12'2 3.0
2014-Oct-16 20:33N 40°38' W 074°10'0 0.0
2014-Oct-16 19:33N 40°38' W 074°10'0 0.0
2014-Oct-16 18:33N 40°38' W 074°10'0 0.0
2014-Oct-16 17:33N 40°38' W 074°10'0 0.0
2014-Oct-16 16:33N 40°38' W 074°10'1 0.6
2014-Oct-16 15:33N 40°39' W 074°09'1 0.6
2014-Oct-16 14:33N 40°38' W 074°10'0 0.0
2014-Oct-16 13:33N 40°38' W 074°10'0 0.0
2014-Oct-16 12:33N 40°38' W 074°10'0 0.0
2014-Oct-16 11:33N 40°38' W 074°10'0 0.0
2014-Oct-16 10:32N 40°38' W 074°10'0 0.0
2014-Oct-16 09:33N 40°38' W 074°10'0 0.0
2014-Oct-16 08:22N 40°38' W 074°10'0 0.0
2014-Oct-16 06:29N 40°38' W 074°10'0 0.0
2014-Oct-16 05:31N 40°38' W 074°10'5 5.2
2014-Oct-16 04:33N 40°40' W 074°03'1 0.8
2014-Oct-16 03:25N 40°40' W 074°02'4 4.5
2014-Oct-16 02:29N 40°39' W 074°08'4 0.3
2014-Oct-15 15:32N 40°38' W 074°12'0 0.1
2014-Oct-15 14:33N 40°38' W 074°12'4 3.6
2014-Oct-15 13:33N 40°39' W 074°08'8 8.1
2014-Oct-15 12:33N 40°42' W 073°58'3 2.7
2014-Oct-15 11:32N 40°41' W 074°01'7 6.6
2014-Oct-15 10:30N 40°39' W 074°10'0 0.0
2014-Oct-15 09:24N 40°39' W 074°10'0 0.0
2014-Oct-15 08:33N 40°39' W 074°10'0 0.0
2014-Oct-15 07:32N 40°39' W 074°10'0 0.0
2014-Oct-15 06:24N 40°39' W 074°10'0 0.0
2014-Oct-15 04:30N 40°39' W 074°10'0 0.0
2014-Oct-15 03:22N 40°39' W 074°10'0 0.0
2014-Oct-15 02:26N 40°39' W 074°10'0 0.0
2014-Oct-15 00:15N 40°39' W 074°10'5 7.0
2014-Oct-14 23:33N 40°40' W 074°04'1311.7
2014-Oct-14 22:27N 40°51' W 073°57'1010.8
2014-Oct-14 21:33N 41°01' W 073°53'10 9.1
2014-Oct-14 20:26N 41°11' W 073°56'2 2.0
2014-Oct-14 19:31N 41°12' W 073°57'0 0.0
2014-Oct-14 18:32N 41°12' W 073°57'0 0.0
2014-Oct-14 17:29N 41°12' W 073°57'2 1.7
2014-Oct-14 16:29N 41°11' W 073°56'2 1.7
2014-Oct-14 15:30N 41°12' W 073°57'23 2.5
2014-Oct-14 06:24N 40°49' W 073°58'6 7.2
2014-Oct-14 05:33N 40°44' W 074°01'5 4.5
2014-Oct-14 04:31N 40°40' W 074°04'7 5.2
2014-Oct-14 03:09N 40°36' W 074°12'3 0.2
2014-Oct-13 12:19N 40°39' W 074°10'0 0.0
2014-Oct-13 11:33N 40°39' W 074°10'3 3.3
2014-Oct-13 10:32N 40°39' W 074°06'0 0.4
2014-Oct-13 09:33N 40°39' W 074°06'5 5.1
2014-Oct-13 08:33N 40°37' W 074°12'2 1.7
2014-Oct-13 07:33N 40°36' W 074°12'4 3.5
2014-Oct-13 06:33N 40°39' W 074°11'1 0.6
2014-Oct-13 05:17N 40°38' W 074°10'0 0.0
2014-Oct-13 04:08N 40°38' W 074°10'0 0.0
2014-Oct-13 03:26N 40°38' W 074°10'0 0.0
2014-Oct-13 01:33N 40°38' W 074°10'0 0.0
2014-Oct-13 00:31N 40°38' W 074°10'0 0.0
2014-Oct-12 23:32N 40°38' W 074°10'0 0.2
2014-Oct-12 22:29N 40°38' W 074°10'4 3.6
2014-Oct-12 21:30N 40°39' W 074°05'6 4.3
2014-Oct-12 20:07N 40°37' W 074°12'3 0.7
2014-Oct-12 15:20N 40°39' W 074°09'1 0.3
2014-Oct-12 13:30N 40°38' W 074°10'0 0.1
2014-Oct-12 09:06N 40°39' W 074°10'0 0.0
2014-Oct-12 08:22N 40°39' W 074°10'0 0.0
2014-Oct-12 07:09N 40°39' W 074°10'3 1.5
2014-Oct-12 05:18N 40°36' W 074°12'1 1.7
2014-Oct-12 04:33N 40°38' W 074°12'4 4.1
2014-Oct-12 03:30N 40°33' W 074°14'2 1.6
2014-Oct-12 02:23N 40°32' W 074°15'7 8.3
2014-Oct-12 01:31N 40°39' W 074°11'1 1.1
2014-Oct-12 00:33N 40°38' W 074°10'0 0.0
2014-Oct-11 23:33N 40°38' W 074°10'0 0.0
2014-Oct-11 22:33N 40°38' W 074°10'5 5.4
2014-Oct-11 21:33N 40°40' W 074°03'0 0.4
2014-Oct-11 20:33N 40°40' W 074°03'0 0.0
2014-Oct-11 19:33N 40°40' W 074°03'6 5.7
2014-Oct-11 18:33N 40°38' W 074°10'0 0.0
2014-Oct-11 17:33N 40°38' W 074°10'0 0.0
2014-Oct-11 16:33N 40°38' W 074°10'0 0.0
2014-Oct-11 15:33N 40°38' W 074°10'2 2.2
2014-Oct-11 14:33N 40°39' W 074°07'0 0.0
2014-Oct-11 13:32N 40°39' W 074°07'0 0.0
2014-Oct-11 12:33N 40°39' W 074°07'  

Dump ship's entire track history